Time;durP1;ratioP1;P1;durP2;ratioP2;P2;SDS_P1;SDS_P2;PMS_P1;PMS_P2;Temp;Humidity;BMP_temperature;BMP_pressure;BME280_temperature;BME280_humidity;BME280_pressure;Samples;Min_cycle;Max_cycle;Signal;HPM_P1;HPM_P2
2023/06/20 00:00:36;;;;;;;6.03;1.80;;;;;;;21.33;87.82;100479.47;5071060;28;20056;-61
2023/06/20 00:03:03;;;;;;;13.32;2.10;;;;;;;21.32;87.76;100479.88;5073658;28;20055;-61
2023/06/20 00:05:30;;;;;;;7.07;1.98;;;;;;;21.36;87.87;100478.66;5073299;28;20048;-62
2023/06/20 00:07:58;;;;;;;6.28;2.10;;;;;;;21.22;88.78;100484.19;5073674;28;20055;-62
2023/06/20 00:10:26;;;;;;;6.80;2.13;;;;;;;21.19;89.44;100487.78;5063518;28;20059;-61
2023/06/20 00:12:53;;;;;;;4.97;1.70;;;;;;;21.16;89.71;100474.56;5074098;28;20052;-62
2023/06/20 00:15:25;;;;;;;11.20;2.30;;;;;;;21.08;90.29;100468.09;5074392;28;20056;-62
2023/06/20 00:17:54;;;;;;;11.27;2.00;;;;;;;21.31;89.28;100462.25;5064115;28;20060;-63
2023/06/20 00:20:22;;;;;;;8.15;2.10;;;;;;;21.15;89.94;100461.72;5071573;28;20424;-62
2023/06/20 00:22:50;;;;;;;6.28;1.88;;;;;;;21.32;89.67;100469.47;5039258;28;20052;-61
2023/06/20 00:25:18;;;;;;;11.48;1.58;;;;;;;21.29;89.63;100463.84;5072441;28;20048;-62
2023/06/20 00:27:46;;;;;;;10.82;2.22;;;;;;;21.36;89.35;100458.28;5073979;28;20060;-61
2023/06/20 00:30:13;;;;;;;6.53;1.92;;;;;;;21.23;89.50;100466.97;5073800;28;20064;-62
2023/06/20 00:32:41;;;;;;;7.15;2.10;;;;;;;21.18;89.93;100469.38;5071774;28;20044;-63
2023/06/20 00:35:09;;;;;;;8.18;1.88;;;;;;;21.39;89.22;100471.50;5072083;28;20052;-62
2023/06/20 00:37:38;;;;;;;7.47;1.98;;;;;;;21.25;89.80;100472.22;5072383;28;20352;-62
2023/06/20 00:40:07;;;;;;;8.90;2.20;;;;;;;21.17;89.91;100467.75;5073228;28;20527;-62
2023/06/20 00:42:34;;;;;;;9.95;2.10;;;;;;;21.02;91.78;100466.88;5048241;28;20055;-63
2023/06/20 00:45:03;;;;;;;9.63;2.38;;;;;;;21.29;90.57;100464.63;5057027;28;20036;-62
2023/06/20 00:47:31;;;;;;;9.18;2.40;;;;;;;21.14;91.35;100460.94;5073174;28;20067;-62
2023/06/20 00:49:58;;;;;;;12.15;2.13;;;;;;;21.00;92.16;100460.03;5071899;28;20060;-62
2023/06/20 00:52:25;;;;;;;8.82;1.85;;;;;;;21.01;92.27;100445.66;5073460;28;20040;-63
2023/06/20 00:54:53;;;;;;;11.00;2.00;;;;;;;20.95;92.85;100444.41;5070492;28;20530;-61
2023/06/20 00:57:20;;;;;;;9.60;2.13;;;;;;;21.11;92.42;100441.31;5068968;28;20057;-62
2023/06/20 00:59:49;;;;;;;9.73;2.00;;;;;;;20.86;93.15;100441.13;5065218;28;20231;-60
2023/06/20 01:02:17;;;;;;;9.32;2.50;;;;;;;21.01;93.41;100448.44;5072028;28;20079;-61
2023/06/20 01:04:45;;;;;;;6.32;1.60;;;;;;;21.21;92.08;100447.00;5072493;28;20048;-61
2023/06/20 01:07:28;;;;;;;15.95;2.05;;;;;;;21.30;90.56;100454.22;5072318;28;20044;-61
2023/06/20 01:10:12;;;;;;;10.15;2.45;;;;;;;21.21;91.54;100458.19;5071239;28;20048;-62
2023/06/20 01:12:52;;;;;;;7.85;2.15;;;;;;;21.24;91.02;100449.00;5071723;28;20056;-60
2023/06/20 01:15:26;;;;;;;7.68;2.33;;;;;;;21.14;92.36;100455.34;5071613;28;20052;-61
2023/06/20 01:18:02;;;;;;;11.20;2.28;;;;;;;21.04;92.71;100446.88;5064958;28;20049;-61
2023/06/20 01:20:44;;;;;;;11.82;2.42;;;;;;;21.08;93.06;100458.88;5072050;28;20063;-61
2023/06/20 01:23:13;;;;;;;10.13;2.30;;;;;;;21.13;93.25;100450.13;5071580;28;20067;-62
2023/06/20 01:25:52;;;;;;;6.10;2.00;;;;;;;21.12;93.65;100440.13;5072584;28;20048;-62
2023/06/20 01:28:40;;;;;;;12.33;2.87;;;;;;;21.06;93.36;100441.69;5071578;28;20056;-61
2023/06/20 01:31:09;;;;;;;10.52;2.70;;;;;;;21.11;93.36;100432.91;5067409;28;20093;-61
2023/06/20 01:33:50;;;;;;;10.77;3.03;;;;;;;21.01;94.85;100436.44;5067616;28;20060;-61
2023/06/20 01:36:19;;;;;;;14.55;2.78;;;;;;;20.92;94.93;100427.56;5051071;28;20049;-61
2023/06/20 01:38:51;;;;;;;12.35;3.60;;;;;;;20.84;95.55;100428.69;5071406;28;20055;-61
2023/06/20 01:41:21;;;;;;;9.10;3.45;;;;;;;20.96;95.92;100431.16;5072778;28;20048;-62
2023/06/20 01:43:50;;;;;;;18.02;4.60;;;;;;;20.95;96.15;100438.78;5038729;28;20054;-61
2023/06/20 01:46:19;;;;;;;13.27;6.35;;;;;;;21.03;95.54;100434.88;5054681;28;20059;-61
2023/06/20 01:48:48;;;;;;;21.23;8.77;;;;;;;20.87;95.48;100439.13;5054433;28;20044;-61
2023/06/20 01:51:16;;;;;;;16.58;7.57;;;;;;;20.80;96.90;100431.47;5071207;28;20055;-61
2023/06/20 01:53:46;;;;;;;19.52;7.78;;;;;;;20.90;97.30;100441.94;5054709;28;20060;-61
2023/06/20 01:56:14;;;;;;;20.70;6.72;;;;;;;20.92;96.78;100447.16;5054460;28;20043;-61
2023/06/20 01:58:42;;;;;;;16.15;6.57;;;;;;;20.96;96.60;100451.59;5071284;28;20054;-61
2023/06/20 02:01:11;;;;;;;14.52;5.15;;;;;;;20.74;97.23;100449.03;5054618;28;20397;-61
2023/06/20 02:03:41;;;;;;;13.18;3.53;;;;;;;20.88;97.52;100443.53;5051204;28;20056;-62
2023/06/20 02:06:13;;;;;;;12.25;3.55;;;;;;;20.78;98.37;100439.44;5050621;28;20041;-61
2023/06/20 02:08:42;;;;;;;11.15;3.65;;;;;;;20.77;98.64;100437.84;5070566;28;20048;-61
2023/06/20 02:11:09;;;;;;;10.75;2.90;;;;;;;20.82;98.37;100436.66;5070519;28;20051;-62
2023/06/20 02:13:37;;;;;;;14.80;3.85;;;;;;;20.77;98.50;100425.84;5054230;28;20057;-61
2023/06/20 02:16:08;;;;;;;8.30;2.72;;;;;;;20.67;99.52;100443.38;5059460;28;20032;-61
2023/06/20 02:18:37;;;;;;;10.55;3.38;;;;;;;20.74;99.58;100440.63;5074814;28;20063;-62
2023/06/20 02:21:06;;;;;;;11.02;3.38;;;;;;;20.86;97.75;100429.91;5071134;28;20058;-62
2023/06/20 02:23:37;;;;;;;15.70;3.30;;;;;;;20.89;97.48;100422.72;5073177;28;20056;-62
2023/06/20 02:26:08;;;;;;;9.98;3.25;;;;;;;20.90;97.57;100427.94;5057746;28;20576;-62
2023/06/20 02:28:39;;;;;;;10.65;2.92;;;;;;;21.04;97.68;100427.28;5064243;28;20053;-63
2023/06/20 02:31:10;;;;;;;14.20;3.45;;;;;;;20.92;97.14;100416.38;5071280;28;20080;-61
2023/06/20 02:33:38;;;;;;;14.15;3.05;;;;;;;20.67;99.07;100410.59;5071851;28;20385;-61
2023/06/20 02:36:07;;;;;;;12.98;3.33;;;;;;;20.61;100.00;100417.72;5025032;28;20056;-62
2023/06/20 02:38:34;;;;;;;9.52;3.08;;;;;;;20.81;99.29;100419.09;5063171;28;20048;-60
2023/06/20 02:41:03;;;;;;;15.63;3.40;;;;;;;20.96;97.75;100434.78;5072147;28;20063;-61
2023/06/20 02:43:31;;;;;;;12.75;3.30;;;;;;;20.98;97.19;100426.00;5072113;28;20052;-61
2023/06/20 02:46:04;;;;;;;12.00;3.35;;;;;;;21.07;97.24;100418.06;5073561;28;20051;-62
2023/06/20 02:48:40;;;;;;;12.40;3.47;;;;;;;20.92;98.00;100413.56;5075812;28;20563;-62
2023/06/20 02:51:10;;;;;;;10.27;3.17;;;;;;;20.98;98.14;100414.78;5073738;28;20048;-62
2023/06/20 02:54:02;;;;;;;8.75;3.45;;;;;;;20.88;98.61;100418.31;5057329;28;20447;-67
2023/06/20 02:56:31;;;;;;;10.20;3.65;;;;;;;21.11;97.43;100422.50;5074060;28;20368;-61
2023/06/20 02:58:59;;;;;;;14.25;2.88;;;;;;;21.01;97.27;100417.63;5073639;28;20048;-61
2023/06/20 03:01:28;;;;;;;11.15;3.72;;;;;;;21.01;97.93;100414.84;5057261;28;20056;-61
2023/06/20 03:03:59;;;;;;;16.35;3.45;;;;;;;20.85;98.43;100407.91;5057480;28;20048;-61
2023/06/20 03:06:27;;;;;;;15.05;3.50;;;;;;;20.95;98.48;100401.56;5074423;28;20037;-61
2023/06/20 03:08:57;;;;;;;16.85;4.13;;;;;;;20.86;98.15;100392.72;5057684;28;20428;-62
2023/06/20 03:11:25;;;;;;;14.00;4.10;;;;;;;20.82;99.11;100397.47;5049471;28;20052;-62
2023/06/20 03:13:53;;;;;;;12.40;3.80;;;;;;;20.81;99.55;100404.28;5061236;28;20663;-63
2023/06/20 03:16:20;;;;;;;10.18;3.35;;;;;;;20.99;99.23;100394.81;5080266;28;20438;-62
2023/06/20 03:18:51;;;;;;;8.65;3.05;;;;;;;20.96;98.43;100403.16;5065697;28;20049;-62
2023/06/20 03:21:20;;;;;;;13.45;3.35;;;;;;;21.07;97.33;100399.28;5043752;28;20053;-62
2023/06/20 03:23:59;;;;;;;;;;;;;;;20.84;98.19;100403.50;5061366;28;20055;-61
2023/06/20 03:26:28;;;;;;;19.52;4.00;;;;;;;20.82;99.31;100398.28;5072832;28;19927;-61
2023/06/20 03:28:58;;;;;;;17.05;4.10;;;;;;;20.78;99.50;100394.66;5059283;28;20049;-62
2023/06/20 03:31:26;;;;;;;10.35;3.85;;;;;;;20.64;100.00;100390.97;5058931;28;20056;-62
2023/06/20 03:33:54;;;;;;;11.88;3.78;;;;;;;20.84;100.00;100381.09;5056553;28;20060;-62
2023/06/20 03:36:22;;;;;;;15.07;3.60;;;;;;;20.81;99.60;100382.69;5074179;28;20053;-61
2023/06/20 03:38:49;;;;;;;10.98;3.78;;;;;;;20.64;100.00;100388.16;5057639;28;20659;-62
2023/06/20 03:41:18;;;;;;;12.68;4.00;;;;;;;20.61;100.00;100398.13;5072956;28;20041;-62
2023/06/20 03:43:46;;;;;;;14.05;4.25;;;;;;;20.79;99.87;100395.47;5073426;28;20142;-64
2023/06/20 03:46:14;;;;;;;17.17;4.20;;;;;;;20.68;100.00;100392.59;5064081;28;20056;-64
2023/06/20 03:48:42;;;;;;;15.40;4.25;;;;;;;20.61;100.00;100389.75;5053004;28;20071;-64
2023/06/20 03:51:09;;;;;;;12.88;4.00;;;;;;;20.81;100.00;100384.69;5052940;28;20048;-63
2023/06/20 03:53:37;;;;;;;12.02;4.13;;;;;;;20.79;100.00;100384.25;5052235;28;20049;-64
2023/06/20 03:56:04;;;;;;;10.18;4.03;;;;;;;20.81;99.46;100382.69;5052693;28;20044;-64
2023/06/20 03:58:33;;;;;;;10.68;3.65;;;;;;;20.61;100.00;100377.72;5072926;28;20055;-63
2023/06/20 04:01:00;;;;;;;13.43;4.15;;;;;;;20.82;100.00;100386.28;5073152;28;20063;-61
2023/06/20 04:03:28;;;;;;;25.13;4.40;;;;;;;21.00;98.32;100388.03;5063623;28;20049;-62
2023/06/20 04:06:00;;;;;;;10.57;4.22;;;;;;;20.85;98.76;100385.53;5054089;28;20056;-62
2023/06/20 04:08:29;;;;;;;12.63;3.47;;;;;;;20.71;99.27;100385.41;5054194;28;20059;-62
2023/06/20 04:10:58;;;;;;;11.43;3.83;;;;;;;20.90;98.92;100390.75;5045447;28;20057;-62
2023/06/20 04:13:27;;;;;;;11.88;3.72;;;;;;;20.88;98.85;100376.34;5052227;28;20064;-62
2023/06/20 04:15:55;;;;;;;13.13;4.03;;;;;;;21.01;97.93;100391.63;5060854;28;20032;-64
2023/06/20 04:18:23;;;;;;;9.95;3.55;;;;;;;21.02;97.28;100396.84;5076229;28;20714;-63
2023/06/20 04:20:50;;;;;;;16.90;4.00;;;;;;;20.85;98.00;100402.31;5072303;28;20049;-62
2023/06/20 04:23:17;;;;;;;15.15;4.28;;;;;;;20.92;98.18;100393.97;5073450;28;20044;-63
2023/06/20 04:25:45;;;;;;;17.05;4.25;;;;;;;20.89;98.42;100391.91;5074252;28;20044;-63
2023/06/20 04:28:12;;;;;;;18.88;4.35;;;;;;;20.94;98.26;100392.38;5061771;28;20072;-63
2023/06/20 04:30:52;;;;;;;17.75;4.22;;;;;;;20.82;98.24;100391.88;5058722;28;20135;-61
2023/06/20 04:33:20;;;;;;;18.58;4.38;;;;;;;20.83;99.15;100393.50;5053080;28;20045;-62
2023/06/20 04:35:47;;;;;;;14.05;4.50;;;;;;;20.71;99.38;100400.19;5051795;28;20417;-61
2023/06/20 04:38:15;;;;;;;16.45;4.18;;;;;;;20.82;99.67;100403.06;5050149;28;20071;-63
2023/06/20 04:40:44;;;;;;;13.95;4.65;;;;;;;20.91;97.91;100397.94;5052324;28;20501;-65
2023/06/20 04:43:12;;;;;;;12.48;3.78;;;;;;;21.13;96.75;100400.50;5051611;28;20053;-64
2023/06/20 04:45:39;;;;;;;15.18;4.07;;;;;;;21.04;97.15;100388.06;5049203;28;20400;-65
2023/06/20 04:48:06;;;;;;;12.48;4.43;;;;;;;20.98;96.83;100387.63;5053406;28;20049;-64
2023/06/20 04:50:34;;;;;;;15.30;4.18;;;;;;;21.05;95.78;100393.28;5035731;28;20048;-65
2023/06/20 04:53:03;;;;;;;14.38;4.05;;;;;;;21.05;96.12;100376.47;5051636;28;20420;-63
2023/06/20 04:55:31;;;;;;;13.90;3.92;;;;;;;21.12;96.45;100381.28;5035618;28;20068;-64
2023/06/20 04:57:58;;;;;;;14.80;4.20;;;;;;;21.16;95.73;100368.94;5067808;28;20044;-64
2023/06/20 05:00:27;;;;;;;10.60;3.72;;;;;;;21.20;95.52;100378.13;5068636;28;20052;-64
2023/06/20 05:02:58;;;;;;;13.40;4.93;;;;;;;21.11;95.24;100380.47;5051448;28;20591;-66
2023/06/20 05:05:29;;;;;;;12.38;4.18;;;;;;;21.23;94.19;100373.75;5035377;28;20045;-64
2023/06/20 05:07:57;;;;;;;16.42;4.30;;;;;;;21.18;94.66;100374.13;5069598;28;20392;-63
2023/06/20 05:10:24;;;;;;;16.55;4.07;;;;;;;21.22;95.16;100378.53;5065994;28;20069;-64
2023/06/20 05:12:52;;;;;;;10.73;4.47;;;;;;;21.32;94.55;100384.59;5051443;28;20072;-64
2023/06/20 05:15:23;;;;;;;17.13;4.10;;;;;;;21.24;94.32;100384.56;5062428;28;20040;-64
2023/06/20 05:17:51;;;;;;;17.55;3.67;;;;;;;21.27;94.08;100369.75;5072518;28;20055;-64
2023/06/20 05:20:20;;;;;;;19.60;4.65;;;;;;;21.24;93.26;100376.16;5072202;28;20052;-64
2023/06/20 05:22:47;;;;;;;18.52;4.55;;;;;;;21.31;92.79;100380.16;5072200;28;20051;-64
2023/06/20 05:25:15;;;;;;;14.63;4.55;;;;;;;21.17;93.58;100381.72;5053453;28;20389;-64
2023/06/20 05:27:42;;;;;;;18.00;4.28;;;;;;;21.05;93.32;100381.25;5072610;28;20040;-64
2023/06/20 05:30:10;;;;;;;15.23;4.60;;;;;;;21.06;94.43;100377.28;5073042;28;20049;-64
2023/06/20 05:32:37;;;;;;;16.65;4.30;;;;;;;21.14;93.67;100376.09;5071487;28;20052;-64
2023/06/20 05:35:07;;;;;;;19.45;5.13;;;;;;;21.46;92.61;100371.47;5070963;28;20071;-63
2023/06/20 05:37:35;;;;;;;19.65;4.65;;;;;;;21.65;90.69;100362.72;5072938;28;20040;-65
2023/06/20 05:40:05;;;;;;;15.18;4.00;;;;;;;21.55;90.48;100357.84;5072933;28;20056;-64
2023/06/20 05:42:33;;;;;;;13.95;5.25;;;;;;;21.70;90.17;100364.31;5072719;28;20052;-66
2023/06/20 05:45:00;;;;;;;18.27;5.72;;;;;;;21.91;89.02;100361.59;5071621;28;20087;-64
2023/06/20 05:47:28;;;;;;;12.90;4.13;;;;;;;21.82;88.53;100356.38;5054284;28;20057;-63
2023/06/20 05:49:57;;;;;;;20.95;4.88;;;;;;;21.71;88.91;100361.09;5068245;28;20049;-65
2023/06/20 05:52:25;;;;;;;23.70;5.28;;;;;;;21.75;89.43;100370.34;5072205;28;20162;-64
2023/06/20 05:54:55;;;;;;;17.27;4.65;;;;;;;21.91;88.91;100367.19;5071655;28;20051;-64
2023/06/20 05:57:23;;;;;;;13.50;4.63;;;;;;;22.11;87.07;100368.41;5071383;28;20053;-64
2023/06/20 05:59:51;;;;;;;17.30;4.65;;;;;;;22.08;86.92;100370.03;5066800;28;20040;-64
2023/06/20 06:02:20;;;;;;;21.52;5.40;;;;;;;22.13;86.53;100374.44;5072298;28;20040;-64
2023/06/20 06:04:48;;;;;;;16.95;4.88;;;;;;;22.30;86.33;100374.44;5071236;28;20059;-64
2023/06/20 06:07:16;;;;;;;16.48;5.38;;;;;;;22.34;84.60;100369.63;5072798;28;20049;-64
2023/06/20 06:09:44;;;;;;;14.95;4.78;;;;;;;22.47;84.12;100372.84;5072473;28;20056;-65
2023/06/20 06:12:14;;;;;;;10.75;4.65;;;;;;;22.49;83.85;100367.59;5054873;28;20052;-65
2023/06/20 06:14:42;;;;;;;15.43;4.63;;;;;;;22.20;84.58;100366.00;5071599;28;20052;-64
2023/06/20 06:17:10;;;;;;;23.25;5.70;;;;;;;22.04;85.77;100368.41;5076960;28;20040;-63
2023/06/20 06:19:37;;;;;;;24.70;5.20;;;;;;;22.20;86.34;100366.81;5061031;28;20045;-64
2023/06/20 06:22:05;;;;;;;15.35;5.53;;;;;;;22.34;85.56;100366.03;5056170;28;20053;-64
2023/06/20 06:24:32;;;;;;;14.23;5.40;;;;;;;22.40;84.75;100363.63;5075730;28;20048;-66
2023/06/20 06:27:01;;;;;;;14.25;5.13;;;;;;;22.35;85.00;100364.84;5053067;28;20052;-63
2023/06/20 06:29:28;;;;;;;16.10;5.13;;;;;;;22.60;83.77;100373.25;5056071;28;20049;-63
2023/06/20 06:31:58;;;;;;;20.00;5.50;;;;;;;22.66;83.99;100380.88;5056504;28;20052;-64
2023/06/20 06:34:26;;;;;;;15.32;4.85;;;;;;;22.90;82.96;100382.84;5054179;28;20053;-64
2023/06/20 06:36:53;;;;;;;19.27;8.35;;;;;;;23.02;82.02;100379.59;5065821;28;20056;-65
2023/06/20 06:39:21;;;;;;;20.17;5.68;;;;;;;23.12;81.19;100387.19;5075825;28;20048;-63
2023/06/20 06:41:51;;;;;;;16.65;5.32;;;;;;;23.28;79.72;100387.59;5075538;28;20067;-64
2023/06/20 06:44:22;;;;;;;16.52;5.15;;;;;;;23.31;79.00;100391.56;5045400;28;20057;-64
2023/06/20 06:46:49;;;;;;;19.33;5.20;;;;;;;23.52;78.52;100388.66;5037685;28;20057;-64
2023/06/20 06:49:16;;;;;;;17.23;5.40;;;;;;;23.63;77.48;100392.25;5057660;28;20051;-64
2023/06/20 06:51:44;;;;;;;17.40;5.47;;;;;;;23.61;77.75;100383.41;5064289;28;20097;-64
2023/06/20 06:54:11;;;;;;;14.60;4.93;;;;;;;23.81;76.27;100378.09;5055253;28;20049;-63
2023/06/20 06:56:39;;;;;;;19.48;4.90;;;;;;;23.59;76.66;100377.41;5060330;28;20067;-64
2023/06/20 06:59:07;;;;;;;11.38;5.25;;;;;;;23.87;75.56;100368.03;5071692;28;20044;-64
2023/06/20 07:01:34;;;;;;;21.15;6.07;;;;;;;23.93;74.58;100355.09;5056984;28;20049;-64
2023/06/20 07:04:02;;;;;;;20.75;5.85;;;;;;;23.80;74.97;100359.63;5054183;28;20531;-64
2023/06/20 07:06:30;;;;;;;22.15;5.57;;;;;;;23.76;75.44;100359.66;5055317;28;20052;-63
2023/06/20 07:08:57;;;;;;;13.48;5.35;;;;;;;24.04;74.08;100358.69;5061617;28;20052;-65
2023/06/20 07:11:24;;;;;;;20.73;6.00;;;;;;;23.86;74.18;100372.03;5061823;28;20053;-64
2023/06/20 07:13:52;;;;;;;20.50;5.65;;;;;;;24.03;73.80;100368.31;5067687;28;20528;-64
2023/06/20 07:16:19;;;;;;;16.83;5.97;;;;;;;23.97;73.43;100372.78;5068539;28;20049;-64
2023/06/20 07:18:46;;;;;;;27.65;6.38;;;;;;;23.98;74.17;100386.41;5070353;28;20681;-64
2023/06/20 07:21:14;;;;;;;19.83;5.85;;;;;;;24.05;74.06;100372.34;5054217;28;20032;-64
2023/06/20 07:23:41;;;;;;;20.05;6.85;;;;;;;24.01;74.32;100385.63;5055191;28;20059;-64
2023/06/20 07:26:09;;;;;;;17.98;5.88;;;;;;;23.94;73.87;100391.25;5055433;28;20088;-64
2023/06/20 07:28:36;;;;;;;20.50;6.10;;;;;;;24.08;74.01;100401.66;5055025;28;20048;-66
2023/06/20 07:31:03;;;;;;;16.85;5.63;;;;;;;23.92;73.92;100404.94;5054985;28;20057;-65
2023/06/20 07:33:31;;;;;;;20.25;6.22;;;;;;;23.76;74.61;100413.09;5054280;28;20056;-64
2023/06/20 07:36:00;;;;;;;28.58;6.30;;;;;;;23.83;74.70;100410.25;5054621;28;20053;-64
2023/06/20 07:38:27;;;;;;;19.92;6.15;;;;;;;24.08;74.14;100422.16;5054631;28;20048;-63
2023/06/20 07:40:54;;;;;;;18.13;6.13;;;;;;;24.29;73.35;100424.03;5054697;28;20057;-64
2023/06/20 07:43:24;;;;;;;19.85;5.60;;;;;;;24.40;72.14;100419.94;5053687;28;20064;-65
2023/06/20 07:45:54;;;;;;;24.00;7.38;;;;;;;24.27;72.92;100424.44;5054699;28;20049;-65
2023/06/20 07:48:24;;;;;;;18.20;6.40;;;;;;;24.25;73.46;100424.06;5053887;28;20045;-64
2023/06/20 07:50:52;;;;;;;18.17;5.80;;;;;;;24.06;73.33;100430.22;5053727;28;20059;-64
2023/06/20 07:53:20;;;;;;;14.75;6.10;;;;;;;24.15;73.90;100418.50;5054358;28;20049;-64
2023/06/20 07:55:47;;;;;;;18.58;5.90;;;;;;;24.23;73.02;100426.47;5065336;28;20063;-64
2023/06/20 07:58:14;;;;;;;17.95;6.03;;;;;;;24.33;72.93;100425.63;5074281;28;20423;-64
2023/06/20 08:00:43;;;;;;;18.58;6.43;;;;;;;24.33;72.40;100420.00;5074365;28;20451;-65
2023/06/20 08:03:10;;;;;;;17.15;5.65;;;;;;;24.30;72.02;100426.44;5073268;28;20064;-65
2023/06/20 08:05:38;;;;;;;18.88;6.95;;;;;;;24.37;71.59;100431.22;5063359;28;20567;-64
2023/06/20 08:08:05;;;;;;;11.93;6.25;;;;;;;24.52;71.52;100424.25;5074353;28;20053;-63
2023/06/20 08:10:33;;;;;;;13.68;5.53;;;;;;;24.40;70.49;100428.38;5066127;28;20464;-63
2023/06/20 08:13:00;;;;;;;24.10;6.00;;;;;;;24.41;70.08;100429.97;5059372;28;20056;-64
2023/06/20 08:15:28;;;;;;;24.52;6.53;;;;;;;24.61;69.61;100426.59;5070399;28;20067;-64
2023/06/20 08:17:55;;;;;;;15.73;6.15;;;;;;;24.72;68.86;100427.34;5062503;28;20052;-64
2023/06/20 08:20:24;;;;;;;15.85;6.10;;;;;;;24.98;67.60;100419.06;5065170;28;20092;-64
2023/06/20 08:22:51;;;;;;;11.77;5.30;;;;;;;24.87;67.16;100415.53;5063003;28;20056;-65
2023/06/20 08:25:19;;;;;;;13.85;5.30;;;;;;;25.05;67.26;100416.16;5072787;28;20044;-65
2023/06/20 08:27:46;;;;;;;28.17;6.82;;;;;;;25.10;67.26;100407.25;5043576;28;20060;-64
2023/06/20 08:30:16;;;;;;;16.40;5.50;;;;;;;25.14;66.46;100404.38;5057465;28;20049;-64
2023/06/20 08:32:45;;;;;;;19.35;6.28;;;;;;;25.05;67.19;100406.91;5073499;28;20048;-64
2023/06/20 08:35:12;;;;;;;13.10;5.75;;;;;;;25.21;66.80;100407.91;5072751;28;20053;-64
2023/06/20 08:37:41;;;;;;;15.90;5.93;;;;;;;25.27;66.11;100394.16;5073731;28;20483;-64
2023/06/20 08:40:12;;;;;;;20.30;6.55;;;;;;;25.44;66.56;100393.16;5073258;28;20041;-64
2023/06/20 08:42:42;;;;;;;19.08;6.47;;;;;;;25.38;66.70;100389.22;5072274;28;20667;-63
2023/06/20 08:45:11;;;;;;;10.55;5.40;;;;;;;25.48;65.92;100385.47;5071910;28;20059;-64
2023/06/20 08:47:39;;;;;;;12.40;5.75;;;;;;;25.56;66.12;100395.44;5073143;28;20049;-64
2023/06/20 08:50:09;;;;;;;12.77;6.10;;;;;;;25.80;65.00;100397.16;5071252;28;20040;-64
2023/06/20 08:52:48;;;;;;;20.42;6.07;;;;;;;25.79;64.65;100392.72;5073494;28;20052;-65
2023/06/20 08:55:15;;;;;;;13.63;5.93;;;;;;;25.64;66.06;100396.16;5072871;28;20044;-67
2023/06/20 08:57:45;;;;;;;14.23;6.38;;;;;;;25.96;64.53;100396.53;5073383;28;20424;-66
2023/06/20 09:00:23;;;;;;;17.00;6.72;;;;;;;25.76;65.63;100393.56;5073411;28;20531;-68
2023/06/20 09:02:51;;;;;;;13.95;5.88;;;;;;;25.51;66.83;100385.44;5069018;28;20464;-66
2023/06/20 09:05:19;;;;;;;14.60;6.20;;;;;;;25.57;66.64;100380.13;5052196;28;20504;-67
2023/06/20 09:07:47;;;;;;;12.00;6.40;;;;;;;25.59;66.93;100377.69;5057749;28;20040;-66
2023/06/20 09:10:18;;;;;;;12.32;6.40;;;;;;;26.02;64.73;100377.88;5057886;28;20049;-66
2023/06/20 09:12:46;;;;;;;12.73;6.95;;;;;;;25.94;65.39;100382.03;5055933;28;20049;-68
2023/06/20 09:15:34;;;;;;;15.15;6.15;;;;;;;25.69;65.86;100378.75;5052679;28;20048;-66
2023/06/20 09:18:02;;;;;;;12.75;6.78;;;;;;;25.74;66.57;100376.25;5066391;28;20722;-64
2023/06/20 09:20:30;;;;;;;10.70;6.07;;;;;;;25.92;66.37;100373.19;5072708;28;20056;-64
2023/06/20 09:22:59;;;;;;;10.57;5.90;;;;;;;26.07;66.04;100372.56;5072569;28;20051;-64
2023/06/20 09:25:28;;;;;;;14.68;6.55;;;;;;;26.01;66.06;100368.63;5073185;28;20059;-64
2023/06/20 09:27:56;;;;;;;16.15;6.10;;;;;;;26.41;64.83;100367.56;5071400;28;20059;-64
2023/06/20 09:30:29;;;;;;;11.95;6.18;;;;;;;26.24;64.98;100359.41;5071749;28;20575;-64
2023/06/20 09:33:02;;;;;;;10.57;6.03;;;;;;;26.17;66.32;100360.31;5056013;28;20041;-64
2023/06/20 09:35:30;;;;;;;15.77;6.15;;;;;;;26.51;63.70;100369.44;5051149;28;20131;-64
2023/06/20 09:38:01;;;;;;;15.80;6.40;;;;;;;26.55;64.13;100360.91;5051787;28;20068;-64
2023/06/20 09:40:29;;;;;;;12.10;6.50;;;;;;;26.53;63.86;100372.63;5052888;28;20037;-64
2023/06/20 09:42:57;;;;;;;11.45;6.05;;;;;;;26.36;63.55;100376.53;5052938;28;20049;-63
2023/06/20 09:45:24;;;;;;;12.63;6.10;;;;;;;26.28;63.39;100371.44;5054926;28;20048;-66
2023/06/20 09:47:54;;;;;;;10.20;5.90;;;;;;;26.36;64.48;100373.72;5072576;28;20049;-65
2023/06/20 09:50:22;;;;;;;12.85;5.35;;;;;;;26.00;62.91;100371.84;5071421;28;20048;-65
2023/06/20 09:53:13;;;;;;;10.98;5.30;;;;;;;25.77;62.05;100372.56;5055287;28;20047;-64
2023/06/20 09:55:40;;;;;;;12.60;5.55;;;;;;;26.09;62.50;100378.59;5059007;28;20408;-65
2023/06/20 09:58:09;;;;;;;11.75;4.90;;;;;;;26.15;60.86;100379.69;5055892;28;20487;-64
2023/06/20 10:00:37;;;;;;;20.83;12.15;;;;;;;26.12;59.88;100391.03;5058376;28;20048;-66
2023/06/20 10:03:09;;;;;;;36.28;21.58;;;;;;;26.35;58.99;100402.38;5058794;28;20053;-64
2023/06/20 10:05:37;;;;;;;28.70;17.55;;;;;;;25.97;59.41;100390.44;5075432;28;20662;-65
2023/06/20 10:08:06;;;;;;;21.70;12.25;;;;;;;25.92;60.48;100401.41;5074103;28;20048;-65
2023/06/20 10:10:33;;;;;;;18.30;8.53;;;;;;;25.98;60.19;100408.19;5055004;28;20041;-66
2023/06/20 10:13:01;;;;;;;17.33;7.35;;;;;;;26.40;59.40;100410.38;5056403;28;20048;-64
2023/06/20 10:15:28;;;;;;;9.25;6.13;;;;;;;26.39;58.89;100408.78;5055325;28;20057;-66
2023/06/20 10:17:55;;;;;;;12.50;6.13;;;;;;;26.46;59.32;100411.50;5083576;28;20052;-64
2023/06/20 10:20:37;;;;;;;14.35;5.90;;;;;;;26.46;59.79;100406.66;5076423;28;20045;-65
2023/06/20 10:23:10;;;;;;;13.02;5.28;;;;;;;26.60;59.22;100416.91;5076004;28;20051;-63
2023/06/20 10:25:52;;;;;;;9.18;5.35;;;;;;;26.74;58.22;100424.38;5075934;28;20119;-65
2023/06/20 10:28:20;;;;;;;10.50;4.80;;;;;;;27.03;56.71;100419.81;5041466;28;20063;-65
2023/06/20 10:30:50;;;;;;;13.30;7.00;;;;;;;27.23;55.83;100423.47;5076781;28;20048;-65
2023/06/20 10:33:26;;;;;;;32.15;19.08;;;;;;;27.17;54.98;100437.31;5075095;28;20044;-64
2023/06/20 10:36:00;;;;;;;17.33;12.98;;;;;;;27.40;54.75;100434.47;5054176;28;20409;-65
2023/06/20 10:38:28;;;;;;;15.52;9.68;;;;;;;27.35;54.37;100429.34;5054909;28;20060;-65
2023/06/20 10:41:13;;;;;;;11.38;7.45;;;;;;;27.20;53.88;100430.78;5038115;28;20120;-66
2023/06/20 10:43:53;;;;;;;13.57;7.15;;;;;;;27.28;53.56;100426.59;5026085;28;20044;-64
2023/06/20 10:46:28;;;;;;;;;;;;;;;27.33;53.32;100430.97;5076514;28;20032;-64
2023/06/20 10:48:56;;;;;;;8.65;6.40;;;;;;;27.66;52.60;100435.56;5074439;28;19920;-65
2023/06/20 10:51:23;;;;;;;8.98;5.68;;;;;;;27.61;51.71;100428.38;5057600;28;20053;-65
2023/06/20 10:53:50;;;;;;;10.55;4.85;;;;;;;27.74;52.26;100429.31;5075394;28;20044;-64
2023/06/20 10:56:24;;;;;;;7.63;5.05;;;;;;;27.60;52.53;100426.78;5068757;28;20488;-64
2023/06/20 10:58:51;;;;;;;7.93;4.55;;;;;;;27.58;52.43;100422.81;5074007;28;20383;-64
2023/06/20 11:01:19;;;;;;;10.48;4.50;;;;;;;27.90;52.90;100422.09;5068364;28;20053;-65
2023/06/20 11:03:48;;;;;;;8.52;4.65;;;;;;;27.82;52.10;100424.31;5058731;28;20052;-64
2023/06/20 11:06:16;;;;;;;13.35;5.30;;;;;;;27.56;52.89;100433.75;5074927;28;20052;-64
2023/06/20 11:08:45;;;;;;;6.97;4.32;;;;;;;27.70;53.39;100441.97;5070795;28;20515;-64
2023/06/20 11:11:12;;;;;;;9.75;4.53;;;;;;;28.06;52.79;100439.16;5058498;28;20057;-64
2023/06/20 11:13:42;;;;;;;9.10;4.40;;;;;;;27.74;53.73;100443.47;5055106;28;20120;-64
2023/06/20 11:16:18;;;;;;;9.52;4.47;;;;;;;27.70;54.44;100431.41;5054624;28;20135;-64
2023/06/20 11:18:46;;;;;;;8.35;4.28;;;;;;;27.75;54.68;100441.44;5071462;28;20071;-64
2023/06/20 11:21:17;;;;;;;11.95;4.95;;;;;;;27.91;54.74;100447.19;5054545;28;20041;-63
2023/06/20 11:23:44;;;;;;;8.65;4.47;;;;;;;27.88;54.79;100436.69;5055246;28;20072;-67
2023/06/20 11:26:12;;;;;;;10.25;4.32;;;;;;;28.15;54.84;100436.53;5055398;28;20056;-64
2023/06/20 11:28:39;;;;;;;8.68;4.18;;;;;;;28.41;53.38;100427.81;5036691;28;20045;-64